Time;durP1;ratioP1;P1;durP2;ratioP2;P2;SDS_P1;SDS_P2;PMS_P1;PMS_P2;Temp;Humidity;BMP_temperature;BMP_pressure;BME280_temperature;BME280_humidity;BME280_pressure;Samples;Min_cycle;Max_cycle;Signal;HPM_P1;HPM_P2
2022/07/15 00:02:26;;;;;;;4.83;3.17;;;;;;;;;;5113298;28;20288;-74
2022/07/15 00:04:53;;;;;;;7.60;3.40;;;;;;;;;;5115619;28;20205;-73
2022/07/15 00:07:21;;;;;;;9.20;3.50;;;;;;;;;;5114758;28;20209;-74
2022/07/15 00:12:33;;;;;;;3.73;2.97;;;;;;;;;;5115556;28;20270;-74
2022/07/15 00:15:02;;;;;;;9.37;3.13;;;;;;;;;;5115141;28;20300;-73
2022/07/15 00:17:29;;;;;;;6.20;3.00;;;;;;;;;;5115305;28;20254;-74
2022/07/15 00:19:56;;;;;;;7.90;3.43;;;;;;;;;;5114721;28;20233;-74
2022/07/15 00:22:24;;;;;;;6.73;2.97;;;;;;;;;;5113907;28;20281;-74
2022/07/15 00:24:51;;;;;;;4.87;3.30;;;;;;;;;;5114717;28;20225;-74
2022/07/15 00:27:19;;;;;;;8.13;3.00;;;;;;;;;;5115676;28;20284;-74
2022/07/15 00:29:46;;;;;;;7.40;3.13;;;;;;;;;;5114934;27;20201;-74
2022/07/15 00:32:14;;;;;;;6.30;3.13;;;;;;;;;;5114973;28;20221;-74
2022/07/15 00:34:42;;;;;;;10.93;3.20;;;;;;;;;;5114285;28;20259;-74
2022/07/15 00:37:09;;;;;;;7.03;3.30;;;;;;;;;;5114160;28;20225;-74
2022/07/15 00:39:36;;;;;;;4.80;3.30;;;;;;;;;;5114957;28;20225;-74
2022/07/15 00:42:03;;;;;;;5.63;3.27;;;;;;;;;;5114769;28;20202;-74
2022/07/15 00:44:30;;;;;;;6.57;3.10;;;;;;;;;;5114582;27;20233;-74
2022/07/15 00:47:00;;;;;;;4.33;3.23;;;;;;;;;;5113881;28;20241;-74
2022/07/15 00:49:28;;;;;;;8.17;3.60;;;;;;;;;;5114504;27;20618;-74
2022/07/15 00:51:57;;;;;;;6.00;3.17;;;;;;;;;;5114362;28;20268;-74
2022/07/15 00:54:24;;;;;;;6.33;3.47;;;;;;;;;;5114617;28;20203;-73
2022/07/15 00:56:53;;;;;;;6.13;3.13;;;;;;;;;;5113742;27;20256;-74
2022/07/15 00:59:21;;;;;;;8.03;3.53;;;;;;;;;;5114418;28;20205;-74
2022/07/15 01:01:49;;;;;;;4.53;3.40;;;;;;;;;;5114484;28;20803;-74
2022/07/15 01:04:18;;;;;;;5.13;3.27;;;;;;;;;;5113703;28;20229;-74
2022/07/15 01:06:47;;;;;;;5.67;3.07;;;;;;;;;;5114727;28;20233;-74
2022/07/15 01:09:14;;;;;;;4.53;2.77;;;;;;;;;;5114416;28;20284;-74
2022/07/15 01:11:41;;;;;;;6.80;3.30;;;;;;;;;;5113875;28;20229;-74
2022/07/15 01:14:08;;;;;;;6.80;3.20;;;;;;;;;;5112617;28;20209;-74
2022/07/15 01:16:36;;;;;;;4.77;3.10;;;;;;;;;;5113922;28;20257;-74
2022/07/15 01:19:04;;;;;;;4.43;3.00;;;;;;;;;;5114335;28;20284;-74
2022/07/15 01:21:33;;;;;;;5.33;3.47;;;;;;;;;;5112757;28;20288;-74
2022/07/15 01:24:00;;;;;;;5.57;3.07;;;;;;;;;;5114242;28;20252;-74
2022/07/15 01:26:28;;;;;;;5.73;3.53;;;;;;;;;;5113499;28;20198;-74
2022/07/15 01:28:55;;;;;;;6.63;3.60;;;;;;;;;;5113985;28;20209;-74
2022/07/15 01:31:22;;;;;;;6.90;3.53;;;;;;;;;;5112517;28;20730;-74
2022/07/15 01:33:50;;;;;;;7.37;3.70;;;;;;;;;;5112913;28;20241;-74
2022/07/15 01:36:17;;;;;;;6.27;3.07;;;;;;;;;;5114329;28;20316;-74
2022/07/15 01:38:46;;;;;;;5.77;3.90;;;;;;;;;;5113916;28;20281;-74
2022/07/15 01:41:13;;;;;;;4.67;3.60;;;;;;;;;;5112305;28;20289;-74
2022/07/15 01:43:40;;;;;;;7.27;3.63;;;;;;;;;;5112322;28;20876;-73
2022/07/15 01:46:07;;;;;;;6.43;3.53;;;;;;;;;;5113709;28;20297;-74
2022/07/15 01:51:19;;;;;;;6.67;3.30;;;;;;;;;;5113185;28;20294;-74
2022/07/15 01:53:48;;;;;;;5.73;3.63;;;;;;;;;;5113363;27;20688;-74
2022/07/15 01:56:15;;;;;;;5.17;3.40;;;;;;;;;;5113594;28;20312;-74
2022/07/15 01:58:42;;;;;;;5.60;3.47;;;;;;;;;;5112470;28;20602;-74
2022/07/15 02:01:10;;;;;;;5.90;3.50;;;;;;;;;;5112701;28;20202;-74
2022/07/15 02:03:37;;;;;;;6.50;4.33;;;;;;;;;;5113199;28;20303;-74
2022/07/15 02:06:05;;;;;;;8.17;4.67;;;;;;;;;;5112912;28;20228;-74
2022/07/15 02:08:32;;;;;;;5.33;4.40;;;;;;;;;;5112775;28;20281;-74
2022/07/15 02:11:01;;;;;;;6.60;4.70;;;;;;;;;;5111984;28;20201;-74
2022/07/15 02:13:28;;;;;;;8.53;4.30;;;;;;;;;;5108223;28;20252;-74
2022/07/15 02:15:56;;;;;;;6.50;4.10;;;;;;;;;;5110683;28;20688;-73
2022/07/15 02:18:23;;;;;;;8.47;4.50;;;;;;;;;;5112559;28;20207;-74
2022/07/15 02:20:51;;;;;;;6.67;3.43;;;;;;;;;;5108996;28;20278;-74
2022/07/15 02:23:18;;;;;;;5.50;3.53;;;;;;;;;;5113028;28;20283;-74
2022/07/15 02:25:45;;;;;;;4.53;3.70;;;;;;;;;;5112569;28;20229;-74
2022/07/15 02:28:14;;;;;;;4.33;3.77;;;;;;;;;;5113274;28;20286;-73
2022/07/15 02:30:42;;;;;;;4.90;3.43;;;;;;;;;;5112744;28;20204;-74
2022/07/15 02:33:10;;;;;;;4.90;3.27;;;;;;;;;;5113350;28;20228;-73
2022/07/15 02:35:38;;;;;;;4.90;3.40;;;;;;;;;;5112326;28;20225;-74
2022/07/15 02:38:05;;;;;;;4.70;3.60;;;;;;;;;;5113286;28;20202;-74
2022/07/15 02:40:32;;;;;;;6.27;3.80;;;;;;;;;;5112895;28;20232;-74
2022/07/15 02:43:01;;;;;;;4.23;3.37;;;;;;;;;;5111803;28;20296;-74
2022/07/15 02:45:31;;;;;;;5.30;3.40;;;;;;;;;;5111720;28;20230;-73
2022/07/15 02:47:59;;;;;;;4.67;3.63;;;;;;;;;;5112836;28;20204;-74
2022/07/15 02:50:26;;;;;;;5.63;3.70;;;;;;;;;;5112553;28;20730;-74
2022/07/15 02:52:53;;;;;;;4.67;3.37;;;;;;;;;;5092189;28;20702;-74
2022/07/15 02:55:21;;;;;;;5.47;3.40;;;;;;;;;;5091013;28;20640;-73
2022/07/15 02:57:48;;;;;;;4.97;3.30;;;;;;;;;;5090259;28;20293;-74
2022/07/15 03:00:17;;;;;;;7.60;3.20;;;;;;;;;;5092119;28;20258;-74
2022/07/15 03:02:46;;;;;;;6.43;3.70;;;;;;;;;;5091981;28;20194;-74
2022/07/15 03:05:14;;;;;;;3.73;3.20;;;;;;;;;;5092044;28;20288;-74
2022/07/15 03:07:41;;;;;;;4.63;3.13;;;;;;;;;;5091821;28;20289;-74
2022/07/15 03:10:10;;;;;;;4.60;3.50;;;;;;;;;;5092162;28;20293;-74
2022/07/15 03:12:37;;;;;;;5.23;3.17;;;;;;;;;;5091634;28;20668;-74
2022/07/15 03:15:05;;;;;;;5.73;3.60;;;;;;;;;;5091199;28;20734;-73
2022/07/15 03:17:32;;;;;;;7.70;3.47;;;;;;;;;;5091588;28;20268;-73
2022/07/15 03:20:01;;;;;;;6.30;3.50;;;;;;;;;;5091409;28;20213;-74
2022/07/15 03:22:28;;;;;;;5.57;3.30;;;;;;;;;;5091793;28;20240;-74
2022/07/15 03:24:56;;;;;;;4.03;3.30;;;;;;;;;;5092100;28;20578;-74
2022/07/15 03:27:24;;;;;;;3.40;2.97;;;;;;;;;;5090386;28;20276;-74
2022/07/15 03:29:51;;;;;;;4.90;3.07;;;;;;;;;;5091622;28;20658;-74
2022/07/15 03:32:20;;;;;;;5.07;3.20;;;;;;;;;;5091590;28;20787;-74
2022/07/15 03:34:48;;;;;;;3.93;3.10;;;;;;;;;;5094630;28;20245;-73
2022/07/15 03:37:17;;;;;;;4.10;3.30;;;;;;;;;;5094668;28;20211;-74
2022/07/15 03:39:44;;;;;;;7.33;3.40;;;;;;;;;;5095994;28;20229;-74
2022/07/15 03:42:11;;;;;;;5.80;3.37;;;;;;;;;;5094980;28;20240;-74
2022/07/15 03:44:39;;;;;;;6.43;3.50;;;;;;;;;;5095770;28;20292;-74
2022/07/15 03:47:06;;;;;;;5.90;3.43;;;;;;;;;;5095853;28;20228;-73
2022/07/15 03:49:33;;;;;;;7.33;3.53;;;;;;;;;;5095300;28;20673;-74
2022/07/15 03:52:00;;;;;;;4.00;3.53;;;;;;;;;;5109007;28;20319;-73
2022/07/15 03:54:29;;;;;;;4.57;3.40;;;;;;;;;;5115728;28;20288;-74
2022/07/15 03:56:56;;;;;;;6.23;3.40;;;;;;;;;;5114584;28;20318;-74
2022/07/15 03:59:23;;;;;;;4.40;3.77;;;;;;;;;;5108069;28;20252;-74
2022/07/15 04:01:52;;;;;;;5.70;3.87;;;;;;;;;;5115933;28;20240;-73
2022/07/15 04:04:19;;;;;;;5.70;3.90;;;;;;;;;;5116148;28;20210;-73
2022/07/15 04:06:46;;;;;;;8.27;3.90;;;;;;;;;;5115288;28;20318;-73
2022/07/15 04:09:14;;;;;;;5.30;3.53;;;;;;;;;;5116225;28;20231;-73
2022/07/15 04:11:42;;;;;;;5.23;3.80;;;;;;;;;;5115115;28;20264;-73
2022/07/15 04:14:11;;;;;;;5.53;3.40;;;;;;;;;;5115224;28;20206;-73
2022/07/15 04:16:38;;;;;;;6.80;3.40;;;;;;;;;;5115280;28;20247;-74
2022/07/15 04:19:05;;;;;;;7.40;3.40;;;;;;;;;;5115561;28;20240;-74
2022/07/15 04:21:32;;;;;;;7.07;3.30;;;;;;;;;;5115470;28;20284;-73
2022/07/15 04:24:00;;;;;;;4.23;3.33;;;;;;;;;;5115570;28;20197;-74
2022/07/15 04:26:27;;;;;;;10.40;3.60;;;;;;;;;;5114676;28;20720;-74
2022/07/15 04:28:56;;;;;;;5.93;3.77;;;;;;;;;;5113684;28;20702;-74
2022/07/15 04:31:23;;;;;;;4.77;3.50;;;;;;;;;;5115169;28;20287;-74
2022/07/15 04:33:51;;;;;;;6.63;3.30;;;;;;;;;;5115168;28;20244;-74
2022/07/15 04:36:18;;;;;;;10.23;3.43;;;;;;;;;;5115224;28;20198;-74
2022/07/15 04:38:45;;;;;;;5.27;3.30;;;;;;;;;;5115093;28;20290;-74
2022/07/15 04:41:12;;;;;;;4.70;3.47;;;;;;;;;;5114796;28;20265;-74
2022/07/15 04:43:40;;;;;;;6.67;3.10;;;;;;;;;;5115520;28;20243;-73
2022/07/15 04:46:08;;;;;;;4.33;3.43;;;;;;;;;;5114438;28;20307;-74
2022/07/15 04:51:20;;;;;;;5.33;3.57;;;;;;;;;;5114487;28;20251;-74
2022/07/15 04:53:47;;;;;;;5.20;3.40;;;;;;;;;;5114635;28;20224;-74
2022/07/15 04:56:15;;;;;;;5.17;3.33;;;;;;;;;;5113794;28;20233;-73
2022/07/15 04:58:42;;;;;;;5.07;3.67;;;;;;;;;;5113589;28;20242;-74
2022/07/15 05:01:11;;;;;;;4.83;3.27;;;;;;;;;;5113929;28;20205;-74
2022/07/15 05:03:39;;;;;;;4.47;3.17;;;;;;;;;;5114265;28;20272;-73
2022/07/15 05:06:07;;;;;;;4.87;3.40;;;;;;;;;;5114438;28;20664;-73
2022/07/15 05:08:35;;;;;;;4.60;3.70;;;;;;;;;;5114873;28;20224;-74
2022/07/15 05:11:02;;;;;;;5.97;3.50;;;;;;;;;;5113869;28;20671;-73
2022/07/15 05:13:29;;;;;;;5.47;3.57;;;;;;;;;;5113728;28;20626;-74
2022/07/15 05:15:57;;;;;;;5.97;3.70;;;;;;;;;;5113391;28;20326;-73
2022/07/15 05:18:26;;;;;;;6.90;3.90;;;;;;;;;;5114391;28;20276;-74
2022/07/15 05:20:53;;;;;;;9.73;3.80;;;;;;;;;;5113515;28;20657;-74
2022/07/15 05:23:20;;;;;;;8.33;3.47;;;;;;;;;;5113460;28;20258;-74
2022/07/15 05:25:48;;;;;;;6.47;3.60;;;;;;;;;;5113574;28;20202;-74
2022/07/15 05:28:15;;;;;;;5.30;3.27;;;;;;;;;;5114226;28;20253;-74
2022/07/15 05:30:42;;;;;;;4.00;3.40;;;;;;;;;;5113295;27;20284;-74
2022/07/15 05:33:09;;;;;;;7.90;3.77;;;;;;;;;;5113533;28;20277;-74
2022/07/15 05:35:38;;;;;;;8.50;3.93;;;;;;;;;;5113755;28;20681;-74
2022/07/15 05:38:05;;;;;;;8.07;3.80;;;;;;;;;;5112067;28;20212;-75
2022/07/15 05:40:33;;;;;;;6.17;3.80;;;;;;;;;;5093170;28;20205;-74
2022/07/15 05:43:00;;;;;;;5.80;3.53;;;;;;;;;;5093821;28;20571;-74
2022/07/15 05:45:28;;;;;;;6.53;3.40;;;;;;;;;;5107023;28;20221;-74
2022/07/15 05:47:55;;;;;;;5.87;3.37;;;;;;;;;;5113861;28;20261;-74
2022/07/15 05:50:22;;;;;;;5.63;3.40;;;;;;;;;;5114077;28;20249;-74
2022/07/15 05:52:51;;;;;;;4.70;3.23;;;;;;;;;;5113419;28;20603;-74
2022/07/15 05:55:18;;;;;;;4.83;3.40;;;;;;;;;;5113317;28;20640;-74
2022/07/15 05:57:45;;;;;;;5.20;3.70;;;;;;;;;;5113009;28;20732;-74
2022/07/15 06:00:13;;;;;;;5.47;3.30;;;;;;;;;;5113242;28;20193;-74
2022/07/15 06:02:40;;;;;;;5.35;3.30;;;;;;;;;;5112978;28;20229;-74
2022/07/15 06:05:09;;;;;;;5.72;3.53;;;;;;;;;;5112814;28;20206;-74
2022/07/15 06:07:36;;;;;;;6.13;3.35;;;;;;;;;;5113469;28;20265;-74
2022/07/15 06:10:06;;;;;;;5.40;3.38;;;;;;;;;;5110765;28;20241;-74
2022/07/15 06:12:33;;;;;;;4.82;3.42;;;;;;;;;;5111142;28;20560;-74
2022/07/15 06:15:01;;;;;;;4.40;3.40;;;;;;;;;;5113327;28;20229;-74
2022/07/15 06:17:29;;;;;;;5.72;2.90;;;;;;;;;;5113427;28;20296;-74
2022/07/15 06:19:56;;;;;;;4.20;3.05;;;;;;;;;;5113069;28;20247;-74
2022/07/15 06:22:23;;;;;;;4.63;2.85;;;;;;;;;;5112648;28;20709;-74
2022/07/15 06:24:50;;;;;;;3.97;3.05;;;;;;;;;;5113521;28;20700;-74
2022/07/15 06:27:21;;;;;;;6.13;3.08;;;;;;;;;;5111772;28;20305;-74
2022/07/15 06:29:48;;;;;;;3.90;3.03;;;;;;;;;;5113080;28;20194;-74
2022/07/15 06:32:15;;;;;;;6.18;3.40;;;;;;;;;;5112616;28;20236;-74
2022/07/15 06:34:43;;;;;;;6.82;3.17;;;;;;;;;;5112645;28;20242;-74
2022/07/15 06:37:10;;;;;;;5.03;3.22;;;;;;;;;;5112102;28;20189;-74
2022/07/15 06:39:37;;;;;;;7.53;3.03;;;;;;;;;;5110916;28;20741;-74
2022/07/15 06:42:05;;;;;;;3.42;3.13;;;;;;;;;;5113152;28;20238;-74
2022/07/15 06:44:34;;;;;;;5.63;3.50;;;;;;;;;;5112449;28;20198;-74
2022/07/15 06:47:02;;;;;;;5.07;3.33;;;;;;;;;;5113092;28;20221;-74
2022/07/15 06:49:30;;;;;;;5.47;3.47;;;;;;;;;;5112805;28;20228;-74
2022/07/15 06:51:58;;;;;;;4.15;2.85;;;;;;;;;;5111214;28;20269;-74
2022/07/15 06:54:25;;;;;;;4.45;3.00;;;;;;;;;;5112111;28;20202;-74
2022/07/15 06:56:53;;;;;;;4.18;2.72;;;;;;;;;;5112288;28;20229;-75
2022/07/15 06:59:20;;;;;;;5.68;2.72;;;;;;;;;;5112265;28;20241;-75
2022/07/15 07:01:49;;;;;;;3.70;2.78;;;;;;;;;;5112438;28;20201;-74
2022/07/15 07:04:16;;;;;;;4.45;2.88;;;;;;;;;;5112931;28;20645;-73
2022/07/15 07:06:43;;;;;;;5.63;2.90;;;;;;;;;;5111586;28;20229;-73
2022/07/15 07:09:11;;;;;;;6.43;3.03;;;;;;;;;;5115990;28;20237;-73
2022/07/15 07:11:39;;;;;;;6.38;3.10;;;;;;;;;;5116412;28;20229;-73
2022/07/15 07:14:06;;;;;;;4.18;2.70;;;;;;;;;;5113857;28;20202;-73
2022/07/15 07:16:33;;;;;;;5.72;2.50;;;;;;;;;;5113797;28;20260;-73
2022/07/15 07:19:02;;;;;;;4.50;2.80;;;;;;;;;;5114049;28;20232;-73
2022/07/15 07:21:29;;;;;;;4.50;2.80;;;;;;;;;;5114606;28;20225;-73
2022/07/15 07:23:56;;;;;;;4.57;2.55;;;;;;;;;;5115104;28;20277;-73
2022/07/15 07:26:23;;;;;;;5.80;2.70;;;;;;;;;;5115125;28;20277;-73
2022/07/15 07:28:51;;;;;;;4.55;2.60;;;;;;;;;;5113239;28;20221;-74
2022/07/15 07:34:05;;;;;;;4.00;2.40;;;;;;;;;;5111949;27;20197;-73
2022/07/15 07:36:32;;;;;;;4.30;2.25;;;;;;;;;;5114400;28;20251;-73
2022/07/15 07:38:59;;;;;;;4.05;2.08;;;;;;;;;;5114960;28;20701;-73
2022/07/15 07:41:28;;;;;;;4.63;2.08;;;;;;;;;;5114696;28;20273;-73
2022/07/15 07:43:55;;;;;;;5.05;1.90;;;;;;;;;;5112338;28;20245;-73
2022/07/15 07:46:22;;;;;;;2.83;2.00;;;;;;;;;;5114654;28;20190;-73
2022/07/15 07:48:50;;;;;;;4.35;2.08;;;;;;;;;;5114738;28;20214;-74
2022/07/15 07:51:21;;;;;;;5.65;2.03;;;;;;;;;;5110452;28;20325;-75
2022/07/15 07:53:48;;;;;;;5.10;1.88;;;;;;;;;;5113126;28;20673;-74
2022/07/15 07:56:15;;;;;;;2.42;1.85;;;;;;;;;;5112263;28;20232;-74
2022/07/15 07:58:43;;;;;;;3.80;1.83;;;;;;;;;;5114291;27;20277;-74
2022/07/15 08:01:10;;;;;;;4.10;1.85;;;;;;;;;;5114441;28;20197;-74
2022/07/15 08:03:38;;;;;;;2.70;1.65;;;;;;;;;;5114081;28;20197;-75
2022/07/15 08:06:05;;;;;;;2.35;1.67;;;;;;;;;;5112282;28;20205;-74
2022/07/15 08:08:33;;;;;;;4.45;1.90;;;;;;;;;;5111782;28;20312;-74
2022/07/15 08:11:01;;;;;;;3.13;1.92;;;;;;;;;;5114866;28;20703;-75
2022/07/15 08:13:29;;;;;;;4.43;1.75;;;;;;;;;;5115301;28;20304;-74
2022/07/15 08:15:57;;;;;;;3.80;2.03;;;;;;;;;;5114640;28;20212;-73
2022/07/15 08:18:25;;;;;;;3.78;1.63;;;;;;;;;;5113044;28;20212;-74
2022/07/15 08:20:52;;;;;;;3.17;1.63;;;;;;;;;;5114463;28;20251;-75
2022/07/15 08:23:21;;;;;;;8.45;2.15;;;;;;;;;;5115594;28;20229;-74
2022/07/15 08:25:50;;;;;;;3.05;2.00;;;;;;;;;;5112593;28;20202;-73
2022/07/15 08:28:18;;;;;;;9.32;3.42;;;;;;;;;;5115027;28;20769;-74
2022/07/15 08:30:46;;;;;;;2.55;1.92;;;;;;;;;;5114666;28;20278;-74
2022/07/15 08:33:13;;;;;;;4.97;2.30;;;;;;;;;;5114665;28;20280;-75
2022/07/15 08:35:41;;;;;;;2.88;1.73;;;;;;;;;;5114525;28;20687;-75
2022/07/15 08:38:09;;;;;;;4.18;1.70;;;;;;;;;;5114134;28;20186;-75
2022/07/15 08:40:36;;;;;;;2.78;1.98;;;;;;;;;;5115179;28;20232;-74
2022/07/15 08:43:07;;;;;;;2.08;1.67;;;;;;;;;;5114453;28;20745;-75
2022/07/15 08:45:36;;;;;;;2.00;1.58;;;;;;;;;;5114839;28;20212;-75
2022/07/15 08:48:04;;;;;;;3.08;1.60;;;;;;;;;;5113949;28;20627;-75
2022/07/15 08:50:33;;;;;;;6.57;2.10;;;;;;;;;;5112623;28;20260;-75
2022/07/15 08:53:00;;;;;;;4.75;1.92;;;;;;;;;;5114418;28;20280;-74
2022/07/15 08:55:27;;;;;;;3.03;1.50;;;;;;;;;;5114630;28;20240;-74
2022/07/15 08:57:55;;;;;;;2.85;1.60;;;;;;;;;;5114476;28;20236;-75
2022/07/15 09:00:28;;;;;;;2.97;1.70;;;;;;;;;;5115236;28;20233;-75
2022/07/15 09:02:55;;;;;;;3.28;1.58;;;;;;;;;;5113765;27;20265;-74
2022/07/15 09:05:27;;;;;;;1.63;1.52;;;;;;;;;;5122219;27;20289;-75
2022/07/15 09:07:57;;;;;;;2.90;1.85;;;;;;;;;;5104299;27;20221;-74
2022/07/15 09:10:27;;;;;;;2.72;1.42;;;;;;;;;;5124806;27;20637;-75
2022/07/15 09:12:55;;;;;;;2.47;1.60;;;;;;;;;;5123120;27;20735;-74
2022/07/15 09:15:33;;;;;;;10.65;2.85;;;;;;;;;;5118269;27;20681;-74
2022/07/15 09:18:06;;;;;;;3.72;1.85;;;;;;;;;;5111684;28;20296;-75
2022/07/15 09:20:33;;;;;;;2.92;1.92;;;;;;;;;;5115119;27;20288;-75
2022/07/15 09:23:01;;;;;;;6.60;1.80;;;;;;;;;;5117795;27;20277;-75
2022/07/15 09:25:29;;;;;;;6.82;2.30;;;;;;;;;;5113738;28;20661;-75
2022/07/15 09:28:00;;;;;;;4.18;1.92;;;;;;;;;;5114112;28;20249;-75
2022/07/15 09:36:03;;;;;;;4.72;2.20;;;;;;;;;;5112635;28;20573;-74
2022/07/15 09:38:32;;;;;;;4.00;2.10;;;;;;;;;;5123163;27;20224;-75
2022/07/15 09:40:59;;;;;;;4.28;2.10;;;;;;;;;;5113539;27;20665;-74
2022/07/15 09:43:27;;;;;;;2.75;2.05;;;;;;;;;;5113063;28;20205;-75
2022/07/15 09:45:59;;;;;;;15.80;2.80;;;;;;;;;;5112487;28;20280;-74
2022/07/15 09:48:28;;;;;;;7.97;2.70;;;;;;;;;;5113720;28;20253;-74
2022/07/15 09:50:59;;;;;;;3.95;2.00;;;;;;;;;;5112941;28;20233;-75
2022/07/15 09:53:27;;;;;;;9.65;2.53;;;;;;;;;;5113350;28;20202;-75
2022/07/15 09:55:54;;;;;;;11.23;2.65;;;;;;;;;;5112970;27;20202;-74
2022/07/15 09:58:22;;;;;;;3.50;2.10;;;;;;;;;;5112746;28;20197;-74
2022/07/15 10:00:51;;;;;;;3.65;2.00;;;;;;;;;;5112087;28;20672;-75
2022/07/15 10:03:18;;;;;;;4.75;2.05;;;;;;;;;;5113022;28;20193;-75
2022/07/15 10:05:48;;;;;;;4.18;2.20;;;;;;;;;;5110488;28;20208;-75
2022/07/15 10:08:16;;;;;;;2.78;1.80;;;;;;;;;;5104453;28;20649;-74
2022/07/15 10:10:43;;;;;;;3.83;1.60;;;;;;;;;;5110053;28;20293;-74
2022/07/15 10:13:18;;;;;;;5.53;1.90;;;;;;;;;;5110829;27;20281;-75
2022/07/15 10:15:48;;;;;;;2.30;1.63;;;;;;;;;;5109354;28;20276;-75
2022/07/15 10:18:23;;;;;;;3.00;2.15;;;;;;;;;;5108490;28;20198;-75
2022/07/15 10:20:59;;;;;;;7.43;2.25;;;;;;;;;;5111352;28;20209;-75
2022/07/15 10:23:41;;;;;;;3.72;2.30;;;;;;;;;;5111896;28;20241;-74
2022/07/15 10:26:15;;;;;;;2.80;1.98;;;;;;;;;;5108744;28;20805;-75
2022/07/15 10:28:51;;;;;;;3.05;1.90;;;;;;;;;;5107956;28;20221;-75
2022/07/15 10:31:20;;;;;;;4.28;2.20;;;;;;;;;;5098975;28;20703;-74
2022/07/15 10:34:06;;;;;;;3.17;1.80;;;;;;;;;;5112845;28;20194;-75
2022/07/15 10:36:41;;;;;;;9.80;2.53;;;;;;;;;;5110899;28;20300;-75
2022/07/15 10:39:08;;;;;;;3.92;2.33;;;;;;;;;;5112213;28;20314;-75
2022/07/15 10:41:49;;;;;;;4.25;2.00;;;;;;;;;;5112667;28;20197;-75
2022/07/15 10:44:16;;;;;;;2.67;2.22;;;;;;;;;;5108853;28;20660;-75
2022/07/15 10:46:44;;;;;;;4.60;2.28;;;;;;;;;;5112950;27;20221;-74
2022/07/15 10:49:30;;;;;;;2.50;1.90;;;;;;;;;;5110349;28;20261;-73
2022/07/15 10:52:13;;;;;;;3.60;2.38;;;;;;;;;;5120298;27;20235;-75
2022/07/15 10:54:43;;;;;;;7.43;2.33;;;;;;;;;;5111820;28;20194;-76
2022/07/15 10:57:10;;;;;;;7.40;2.50;;;;;;;;;;5111666;28;20661;-74
2022/07/15 10:59:41;;;;;;;2.33;2.10;;;;;;;;;;5107914;28;20696;-75
2022/07/15 11:02:16;;;;;;;6.10;2.03;;;;;;;;;;5111137;28;20556;-75
2022/07/15 11:04:44;;;;;;;2.75;2.22;;;;;;;;;;5112326;28;20228;-75
2022/07/15 11:07:24;;;;;;;5.60;2.50;;;;;;;;;;5109723;28;20205;-75
2022/07/15 11:09:53;;;;;;;4.60;2.30;;;;;;;;;;5110237;28;20218;-74
2022/07/15 11:12:21;;;;;;;5.25;2.10;;;;;;;;;;5118509;27;20272;-74
2022/07/15 11:14:50;;;;;;;2.10;1.70;;;;;;;;;;5127476;27;20197;-75
2022/07/15 11:17:19;;;;;;;8.88;2.50;;;;;;;;;;5111946;28;20248;-74
2022/07/15 11:19:48;;;;;;;11.15;2.35;;;;;;;;;;5112072;28;20194;-74
2022/07/15 11:22:17;;;;;;;5.40;2.30;;;;;;;;;;5112264;28;20205;-75
2022/07/15 11:24:46;;;;;;;4.90;2.63;;;;;;;;;;5106477;28;20198;-74
2022/07/15 11:27:13;;;;;;;2.42;2.20;;;;;;;;;;5111130;28;20288;-74
2022/07/15 11:29:44;;;;;;;5.82;2.00;;;;;;;;;;5111763;28;20261;-75
2022/07/15 11:32:12;;;;;;;2.58;2.20;;;;;;;;;;5111636;28;20229;-74
2022/07/15 11:34:43;;;;;;;2.53;1.90;;;;;;;;;;5111590;28;20198;-74
2022/07/15 11:37:12;;;;;;;2.20;1.92;;;;;;;;;;5111939;28;20662;-75
2022/07/15 11:39:39;;;;;;;3.90;2.08;;;;;;;;;;5110319;28;20726;-75
2022/07/15 11:45:03;;;;;;;5.20;2.03;;;;;;;;;;5102584;28;20201;-74
2022/07/15 11:47:30;;;;;;;3.97;2.10;;;;;;;;;;5111360;28;20205;-75
2022/07/15 11:50:00;;;;;;;3.42;2.30;;;;;;;;;;5111706;28;20612;-75
2022/07/15 11:52:27;;;;;;;2.20;1.95;;;;;;;;;;5111573;28;20261;-74
2022/07/15 11:54:56;;;;;;;2.17;1.85;;;;;;;;;;5113093;28;20631;-75
2022/07/15 11:57:25;;;;;;;2.35;1.98;;;;;;;;;;5114061;28;20229;-74
2022/07/15 11:59:53;;;;;;;4.28;1.85;;;;;;;;;;5115122;28;20201;-75
2022/07/15 12:02:21;;;;;;;2.15;1.92;;;;;;;;;;5115856;28;20225;-74
2022/07/15 12:04:48;;;;;;;3.90;2.00;;;;;;;;;;5115530;28;20274;-75
2022/07/15 12:07:15;;;;;;;3.45;2.10;;;;;;;;;;5112323;28;20233;-74
2022/07/15 12:09:43;;;;;;;3.50;2.05;;;;;;;;;;5114480;27;20739;-74
2022/07/15 12:12:10;;;;;;;3.10;2.00;;;;;;;;;;5116570;27;20206;-74
2022/07/15 12:14:39;;;;;;;3.97;2.20;;;;;;;;;;5112108;27;20201;-75
2022/07/15 12:17:06;;;;;;;2.97;1.70;;;;;;;;;;5111487;27;20233;-75
2022/07/15 12:19:34;;;;;;;3.45;2.22;;;;;;;;;;5114229;27;20707;-74
2022/07/15 12:22:05;;;;;;;3.13;2.00;;;;;;;;;;5114843;28;20205;-75
2022/07/15 12:24:38;;;;;;;3.72;2.08;;;;;;;;;;5115714;27;20198;-74
2022/07/15 12:27:05;;;;;;;3.00;2.00;;;;;;;;;;5116390;27;20255;-75
2022/07/15 12:29:33;;;;;;;2.22;2.00;;;;;;;;;;5116331;27;20229;-74
2022/07/15 12:32:03;;;;;;;3.15;2.08;;;;;;;;;;5116518;27;20194;-75
2022/07/15 12:34:49;;;;;;;3.60;1.95;;;;;;;;;;5115684;27;20231;-75
2022/07/15 12:37:17;;;;;;;4.32;2.03;;;;;;;;;;5110812;27;20232;-75
2022/07/15 12:39:55;;;;;;;3.65;2.10;;;;;;;;;;5113923;27;20687;-75
2022/07/15 12:42:22;;;;;;;2.72;1.90;;;;;;;;;;5113450;27;20723;-75
2022/07/15 12:45:05;;;;;;;3.85;1.88;;;;;;;;;;5116490;27;20229;-75
2022/07/15 12:47:33;;;;;;;2.40;2.00;;;;;;;;;;5116591;27;20296;-74
2022/07/15 12:50:01;;;;;;;3.00;2.10;;;;;;;;;;5114364;27;20261;-74
2022/07/15 12:52:34;;;;;;;3.58;2.20;;;;;;;;;;5114876;27;20320;-75
2022/07/15 12:55:13;;;;;;;4.32;2.20;;;;;;;;;;5112036;27;20216;-75
2022/07/15 12:57:40;;;;;;;2.28;1.98;;;;;;;;;;5115099;27;20553;-75
2022/07/15 13:00:11;;;;;;;2.40;2.20;;;;;;;;;;5113135;28;20309;-74
2022/07/15 13:02:59;;;;;;;4.20;2.10;;;;;;;;;;5113707;28;20230;-74
2022/07/15 13:05:31;;;;;;;3.67;1.95;;;;;;;;;;5110439;28;20194;-75
2022/07/15 13:07:58;;;;;;;2.00;1.80;;;;;;;;;;5108673;28;20827;-75
2022/07/15 13:10:26;;;;;;;2.80;2.10;;;;;;;;;;5113387;28;20301;-75
2022/07/15 13:12:53;;;;;;;2.08;1.88;;;;;;;;;;5115139;27;20248;-75
2022/07/15 13:15:21;;;;;;;3.10;2.20;;;;;;;;;;5111344;28;20213;-75
2022/07/15 13:17:48;;;;;;;3.00;2.20;;;;;;;;;;5108861;28;20237;-74
2022/07/15 13:20:17;;;;;;;2.55;1.98;;;;;;;;;;5107942;28;20240;-75
2022/07/15 13:22:44;;;;;;;5.82;2.28;;;;;;;;;;5109866;28;20386;-74
2022/07/15 13:25:11;;;;;;;2.22;1.98;;;;;;;;;;5110255;28;20281;-75
2022/07/15 13:27:39;;;;;;;2.60;1.90;;;;;;;;;;5112641;28;20209;-75
2022/07/15 13:30:06;;;;;;;2.80;2.00;;;;;;;;;;5110150;28;20308;-75
2022/07/15 13:32:33;;;;;;;2.88;1.90;;;;;;;;;;5109578;28;20201;-75
2022/07/15 13:35:01;;;;;;;2.80;2.10;;;;;;;;;;5107812;28;20730;-74
2022/07/15 13:37:29;;;;;;;5.97;2.10;;;;;;;;;;5111045;28;20285;-75
2022/07/15 13:39:56;;;;;;;2.88;2.15;;;;;;;;;;5110314;28;20194;-75
2022/07/15 13:42:25;;;;;;;5.00;2.20;;;;;;;;;;5109931;28;20236;-75
2022/07/15 13:44:52;;;;;;;3.40;1.98;;;;;;;;;;5109712;28;20232;-74
2022/07/15 13:47:19;;;;;;;2.40;2.05;;;;;;;;;;5111457;28;20221;-75
2022/07/15 13:52:33;;;;;;;2.53;1.95;;;;;;;;;;5106233;28;20822;-75
2022/07/15 13:55:00;;;;;;;4.03;2.10;;;;;;;;;;5113406;28;20629;-74
2022/07/15 13:57:27;;;;;;;3.03;2.00;;;;;;;;;;5112170;28;20259;-74
2022/07/15 13:59:55;;;;;;;3.72;1.85;;;;;;;;;;5105055;28;20232;-75
2022/07/15 14:02:22;;;;;;;3.17;1.70;;;;;;;;;;5111682;28;20646;-74
2022/07/15 14:04:49;;;;;;;3.28;1.85;;;;;;;;;;5107958;28;20579;-74
2022/07/15 14:07:17;;;;;;;3.40;1.70;;;;;;;;;;5108976;28;20270;-74
2022/07/15 14:09:45;;;;;;;2.17;1.80;;;;;;;;;;5107758;28;20218;-75
2022/07/15 14:12:12;;;;;;;3.42;1.80;;;;;;;;;;5111074;28;20289;-75
2022/07/15 14:14:40;;;;;;;3.47;1.92;;;;;;;;;;5112084;28;20653;-74
2022/07/15 14:17:07;;;;;;;3.17;1.80;;;;;;;;;;5109464;28;20289;-75
2022/07/15 14:19:34;;;;;;;2.15;1.60;;;;;;;;;;5110961;28;20738;-74
2022/07/15 14:22:01;;;;;;;3.78;1.70;;;;;;;;;;5107396;27;20753;-74
2022/07/15 14:24:28;;;;;;;2.83;1.80;;;;;;;;;;5110991;28;20632;-74
2022/07/15 14:26:57;;;;;;;3.13;1.92;;;;;;;;;;5108682;28;20230;-75
2022/07/15 14:29:24;;;;;;;3.20;2.03;;;;;;;;;;5108455;28;20308;-75
2022/07/15 14:31:51;;;;;;;3.80;1.92;;;;;;;;;;5110326;28;20308;-75
2022/07/15 14:34:19;;;;;;;3.08;1.90;;;;;;;;;;5109176;28;20194;-75
2022/07/15 14:36:46;;;;;;;2.80;1.80;;;;;;;;;;5111963;28;20225;-75
2022/07/15 14:39:14;;;;;;;2.35;1.85;;;;;;;;;;5111463;28;20222;-75
2022/07/15 14:41:41;;;;;;;2.72;1.80;;;;;;;;;;5111561;28;20209;-74
2022/07/15 14:44:10;;;;;;;2.10;1.80;;;;;;;;;;5111064;28;20249;-75
2022/07/15 14:46:38;;;;;;;6.25;1.95;;;;;;;;;;5112656;27;20198;-75
2022/07/15 14:49:05;;;;;;;2.33;1.75;;;;;;;;;;5115182;27;20221;-75
2022/07/15 14:51:32;;;;;;;3.25;1.88;;;;;;;;;;5117959;27;20316;-74
2022/07/15 14:54:00;;;;;;;3.03;2.20;;;;;;;;;;5114528;27;20585;-75
2022/07/15 14:56:27;;;;;;;2.75;1.90;;;;;;;;;;5110642;27;20226;-74
2022/07/15 14:58:54;;;;;;;5.35;1.80;;;;;;;;;;5108908;27;20293;-75
2022/07/15 15:01:23;;;;;;;4.47;1.80;;;;;;;;;;5109391;28;20230;-74
2022/07/15 15:03:50;;;;;;;3.03;1.95;;;;;;;;;;5110876;28;20209;-75
2022/07/15 15:06:17;;;;;;;2.28;1.90;;;;;;;;;;5111207;28;20296;-74
2022/07/15 15:08:44;;;;;;;5.32;2.08;;;;;;;;;;5109769;28;20985;-74
2022/07/15 15:11:11;;;;;;;2.53;1.63;;;;;;;;;;5110999;28;20653;-74
2022/07/15 15:13:39;;;;;;;4.10;2.00;;;;;;;;;;5110576;28;20205;-74